Tucson, AZ (85718)

4:57 PM MST on February 26, 2017 (GMT -0700)
MAT021 | | Change Station

Elev 2892 ft 32.33 °N, 110.91 °W | Updated 32 minutes ago

Clear
Clear
61.0 °F
Feels Like 61.0 °F
N
7.0
Wind Variable Wind from West
Gusts 20.0 mph

Today
High -- | Low -- °F
--% Chance of Precip.
Yesterday
High -- | Low -- °F
Precip. -- in
Pressure 29.82 in
Visibility 10.0 miles
Clouds Few 9500 ft
Dew Point 25 °F
Humidity 25%
Rainfall 0.00 in
Snow Depth Not available.
6:54 AM 6:19 PM
New Moon, 0% visible
METAR KDMA 262258Z AUTO 33013G21KT 10SM FEW095 19/M06 A2988 RMK AO2 SLP097 T01871063 $
Pressure 29.82 in
Visibility 10.0 miles
Clouds Few 9500 ft
Dew Point 25 °F
Humidity 25%
Rainfall 0.00 in
Snow Depth Not available.
6:54 AM 6:19 PM
New Moon, 0% visible
METAR KDMA 262258Z AUTO 33013G21KT 10SM FEW095 19/M06 A2988 RMK AO2 SLP097 T01871063 $

Get Your Daily Forecast Email!

Thanks for signing up!

Be on the lookout for a verification email in your inbox.

You'll start receiving the daily forecast at 8 AM.

×

10-Day Weather Forecast

Almanac

Astronomy

Feb. 26, 2017 Rise Set
Actual Time
Civil Twilight
Nautical Twilight
Astronomical Twilight
Moon
Length of Visible Light
Length of Day
Tomorrow will be .
, % of the Moon is Illuminated

Today's Extremes

State Highs State Lows

Community

WunderPhotos

Upload Photos

1,962,540 photos uploaded!

WunderBlog® & News

Nearby

Air Quality

  Air Quality AQ Index Pollutant
Not available.

Snow Depth

Station Depth Elevation

Earthquake Activity

City Distance Mag. Time & Date
Minimum magnitude displayed is 2.5.

Coastal Water Temperatures

Place Temperature

Stations

Nearby Weather Stations

Station Location Temp. Windchill Dew Point Humidity Wind Precip. Elev Updated Type
                   

Watches & Warnings

There are currently no watches in effect.